Time;durP1;ratioP1;P1;durP2;ratioP2;P2;SDS_P1;SDS_P2;PMS_P1;PMS_P2;Temp;Humidity;BMP_temperature;BMP_pressure;BME280_temperature;BME280_humidity;BME280_pressure;Samples;Min_cycle;Max_cycle;Signal;HPM_P1;HPM_P2
2022/07/14 00:02:17;;;;;;;3.22;1.70;;;;;;;;;;5033997;28;20037;-70
2022/07/14 00:04:43;;;;;;;5.10;1.55;;;;;;;;;;5033996;28;20124;-71
2022/07/14 00:07:09;;;;;;;3.53;1.90;;;;;;;;;;5033874;28;20033;-71
2022/07/14 00:09:36;;;;;;;3.70;2.03;;;;;;;;;;5033712;28;20060;-71
2022/07/14 00:12:03;;;;;;;3.05;1.90;;;;;;;;;;5034190;28;20076;-70
2022/07/14 00:14:29;;;;;;;7.85;3.58;;;;;;;;;;5033978;28;20026;-70
2022/07/14 00:16:55;;;;;;;4.22;1.85;;;;;;;;;;5033675;28;20044;-71
2022/07/14 00:19:21;;;;;;;4.80;2.00;;;;;;;;;;5033535;28;20025;-71
2022/07/14 00:21:47;;;;;;;3.55;1.65;;;;;;;;;;5033557;28;20021;-70
2022/07/14 00:24:14;;;;;;;1.92;1.63;;;;;;;;;;5033635;28;20044;-70
2022/07/14 00:26:40;;;;;;;3.95;1.67;;;;;;;;;;5033661;28;20060;-71
2022/07/14 00:29:06;;;;;;;4.00;1.60;;;;;;;;;;5033789;28;20022;-70
2022/07/14 00:31:32;;;;;;;5.28;1.73;;;;;;;;;;5034275;28;20379;-71
2022/07/14 00:33:59;;;;;;;6.22;2.13;;;;;;;;;;5034247;28;20105;-72
2022/07/14 00:36:26;;;;;;;3.38;2.17;;;;;;;;;;5034901;28;20452;-72
2022/07/14 00:38:52;;;;;;;5.80;1.80;;;;;;;;;;5034789;28;20025;-72
2022/07/14 00:41:19;;;;;;;2.88;1.65;;;;;;;;;;5034452;28;20026;-72
2022/07/14 00:43:45;;;;;;;4.97;2.05;;;;;;;;;;5016518;28;20112;-72
2022/07/14 00:46:11;;;;;;;8.05;1.73;;;;;;;;;;5033733;28;20044;-72
2022/07/14 00:48:37;;;;;;;5.32;1.98;;;;;;;;;;5033604;28;20025;-71
2022/07/14 00:51:03;;;;;;;4.82;2.25;;;;;;;;;;5033230;28;20030;-71
2022/07/14 00:53:29;;;;;;;3.03;2.05;;;;;;;;;;5015475;28;20522;-71
2022/07/14 00:55:55;;;;;;;7.82;2.20;;;;;;;;;;5033456;28;20029;-71
2022/07/14 00:58:22;;;;;;;4.57;1.80;;;;;;;;;;5032868;28;20028;-71
2022/07/14 01:00:49;;;;;;;3.58;2.00;;;;;;;;;;5015469;28;20404;-71
2022/07/14 01:03:15;;;;;;;4.90;2.13;;;;;;;;;;5032473;28;20030;-72
2022/07/14 01:05:41;;;;;;;2.58;2.10;;;;;;;;;;5032766;28;20656;-71
2022/07/14 01:08:07;;;;;;;4.20;1.73;;;;;;;;;;5033154;28;20030;-71
2022/07/14 01:10:33;;;;;;;2.95;1.90;;;;;;;;;;5033156;28;20021;-71
2022/07/14 01:13:00;;;;;;;4.13;2.10;;;;;;;;;;5032816;28;20144;-71
2022/07/14 01:15:27;;;;;;;3.88;1.73;;;;;;;;;;5015362;28;20045;-71
2022/07/14 01:17:53;;;;;;;3.25;2.10;;;;;;;;;;5033242;28;20083;-72
2022/07/14 01:20:19;;;;;;;4.35;2.20;;;;;;;;;;5032891;28;20026;-69
2022/07/14 01:22:49;;;;;;;3.20;2.10;;;;;;;;;;5015107;28;20418;-70
2022/07/14 01:25:16;;;;;;;3.22;2.20;;;;;;;;;;5014990;28;20053;-70
2022/07/14 01:27:42;;;;;;;4.40;2.17;;;;;;;;;;5032196;28;20036;-71
2022/07/14 01:30:08;;;;;;;5.18;2.88;;;;;;;;;;5032697;28;20021;-71
2022/07/14 01:32:34;;;;;;;4.88;2.10;;;;;;;;;;5032773;28;20104;-72
2022/07/14 01:35:00;;;;;;;3.60;2.13;;;;;;;;;;5032362;28;20037;-72
2022/07/14 01:37:27;;;;;;;4.38;1.90;;;;;;;;;;5032166;28;20075;-72
2022/07/14 01:39:54;;;;;;;3.97;2.63;;;;;;;;;;5032412;28;20038;-72
2022/07/14 01:42:20;;;;;;;5.03;3.05;;;;;;;;;;5032474;28;20390;-71
2022/07/14 01:44:46;;;;;;;5.10;2.30;;;;;;;;;;5014512;28;20029;-72
2022/07/14 01:47:13;;;;;;;3.20;2.13;;;;;;;;;;5014257;28;20476;-72
2022/07/14 01:49:39;;;;;;;5.75;2.65;;;;;;;;;;5032356;28;20022;-71
2022/07/14 01:52:06;;;;;;;4.13;2.40;;;;;;;;;;5032265;28;20219;-72
2022/07/14 01:54:32;;;;;;;5.72;2.03;;;;;;;;;;5032051;28;20427;-71
2022/07/14 01:56:58;;;;;;;5.45;2.30;;;;;;;;;;5031904;28;20026;-72
2022/07/14 01:59:24;;;;;;;2.45;2.25;;;;;;;;;;5032134;28;20029;-72
2022/07/14 02:01:50;;;;;;;4.07;2.08;;;;;;;;;;5014382;28;20025;-69
2022/07/14 02:04:17;;;;;;;7.68;2.30;;;;;;;;;;5032130;28;20096;-71
2022/07/14 02:06:48;;;;;;;2.70;2.20;;;;;;;;;;5032056;28;20025;-72
2022/07/14 02:09:14;;;;;;;6.13;2.07;;;;;;;;;;5031745;28;20025;-71
2022/07/14 02:14:24;;;;;;;4.63;2.17;;;;;;;;;;5032087;28;20076;-71
2022/07/14 02:16:50;;;;;;;3.17;1.73;;;;;;;;;;5031900;28;20064;-72
2022/07/14 02:19:17;;;;;;;5.63;2.17;;;;;;;;;;5013382;28;20052;-72
2022/07/14 02:21:43;;;;;;;3.05;2.40;;;;;;;;;;5031723;28;20064;-71
2022/07/14 02:24:09;;;;;;;6.53;2.60;;;;;;;;;;5031749;28;20136;-72
2022/07/14 02:26:36;;;;;;;5.55;2.60;;;;;;;;;;5031663;28;20033;-72
2022/07/14 02:29:04;;;;;;;4.10;2.50;;;;;;;;;;5014454;28;20036;-73
2022/07/14 02:31:30;;;;;;;3.63;2.50;;;;;;;;;;5014167;28;20021;-71
2022/07/14 02:33:56;;;;;;;5.78;1.98;;;;;;;;;;5013826;28;20029;-71
2022/07/14 02:36:23;;;;;;;3.00;2.38;;;;;;;;;;5031498;28;20403;-71
2022/07/14 02:38:49;;;;;;;8.23;2.70;;;;;;;;;;5031467;28;20398;-72
2022/07/14 02:41:15;;;;;;;4.13;2.75;;;;;;;;;;5013838;28;20025;-72
2022/07/14 02:43:41;;;;;;;4.72;2.80;;;;;;;;;;5031465;28;20017;-70
2022/07/14 02:46:07;;;;;;;4.82;2.60;;;;;;;;;;5031444;28;20032;-71
2022/07/14 02:48:33;;;;;;;6.82;2.63;;;;;;;;;;5031106;28;20025;-71
2022/07/14 02:51:00;;;;;;;4.75;3.00;;;;;;;;;;5031345;28;20534;-72
2022/07/14 02:53:26;;;;;;;5.82;3.05;;;;;;;;;;5031312;28;20032;-70
2022/07/14 02:55:53;;;;;;;3.65;2.53;;;;;;;;;;5031465;28;20466;-71
2022/07/14 02:58:19;;;;;;;6.50;2.55;;;;;;;;;;5031067;28;20021;-72
2022/07/14 03:00:45;;;;;;;4.70;2.80;;;;;;;;;;5013649;28;20025;-72
2022/07/14 03:03:11;;;;;;;4.72;2.88;;;;;;;;;;5031129;28;20087;-72
2022/07/14 03:05:38;;;;;;;5.03;2.35;;;;;;;;;;5013665;28;20025;-72
2022/07/14 03:08:05;;;;;;;7.15;2.85;;;;;;;;;;5031014;28;20483;-72
2022/07/14 03:10:31;;;;;;;3.70;2.47;;;;;;;;;;5031416;28;20108;-72
2022/07/14 03:12:57;;;;;;;3.92;2.85;;;;;;;;;;5031087;28;20072;-72
2022/07/14 03:15:23;;;;;;;6.65;2.90;;;;;;;;;;5014942;28;20022;-72
2022/07/14 03:17:49;;;;;;;6.72;3.20;;;;;;;;;;5030557;28;20021;-73
2022/07/14 03:20:15;;;;;;;2.42;2.08;;;;;;;;;;5031281;28;20502;-72
2022/07/14 03:22:41;;;;;;;5.47;3.55;;;;;;;;;;5030911;28;20021;-72
2022/07/14 03:25:07;;;;;;;6.53;3.20;;;;;;;;;;5030987;28;20036;-71
2022/07/14 03:27:35;;;;;;;7.45;3.00;;;;;;;;;;5032202;28;20048;-71
2022/07/14 03:30:02;;;;;;;6.10;2.83;;;;;;;;;;5017333;28;20026;-72
2022/07/14 03:32:28;;;;;;;5.40;3.10;;;;;;;;;;5035124;28;20069;-71
2022/07/14 03:34:54;;;;;;;3.28;2.80;;;;;;;;;;5034942;28;20029;-70
2022/07/14 03:37:20;;;;;;;4.45;2.50;;;;;;;;;;5034707;28;20105;-72
2022/07/14 03:39:46;;;;;;;5.10;3.15;;;;;;;;;;5034861;28;20026;-69
2022/07/14 03:42:12;;;;;;;5.20;3.00;;;;;;;;;;5034610;28;20026;-72
2022/07/14 03:44:38;;;;;;;8.43;2.63;;;;;;;;;;5034529;28;20029;-71
2022/07/14 03:47:04;;;;;;;8.80;3.40;;;;;;;;;;5034191;28;20026;-71
2022/07/14 03:49:30;;;;;;;5.13;3.28;;;;;;;;;;5034434;28;20022;-72
2022/07/14 03:51:56;;;;;;;6.43;2.90;;;;;;;;;;5034374;28;20136;-71
2022/07/14 03:54:22;;;;;;;2.85;2.58;;;;;;;;;;5034439;28;20021;-72
2022/07/14 03:56:48;;;;;;;3.25;2.95;;;;;;;;;;5034357;28;20125;-71
2022/07/14 03:59:14;;;;;;;5.30;2.55;;;;;;;;;;5034206;28;20021;-71
2022/07/14 04:01:40;;;;;;;3.47;2.85;;;;;;;;;;5034417;28;20066;-71
2022/07/14 04:04:06;;;;;;;4.00;2.80;;;;;;;;;;5034008;28;20072;-71
2022/07/14 04:06:32;;;;;;;2.50;2.30;;;;;;;;;;5034190;28;20036;-70
2022/07/14 04:08:59;;;;;;;5.10;2.85;;;;;;;;;;5033863;28;20021;-70
2022/07/14 04:11:25;;;;;;;3.85;2.55;;;;;;;;;;5016304;28;20487;-71
2022/07/14 04:13:51;;;;;;;5.75;2.90;;;;;;;;;;5016182;28;20033;-72
2022/07/14 04:16:17;;;;;;;5.60;2.35;;;;;;;;;;5034019;28;20056;-72
2022/07/14 04:18:43;;;;;;;5.38;2.47;;;;;;;;;;5033454;28;20049;-73
2022/07/14 04:21:09;;;;;;;5.63;2.78;;;;;;;;;;5033983;28;20107;-71
2022/07/14 04:23:35;;;;;;;3.92;2.40;;;;;;;;;;5055810;22;20045;-70
2022/07/14 04:26:03;;;;;;;5.18;2.72;;;;;;;;;;5041822;28;20056;-67
2022/07/14 04:28:28;;;;;;;4.90;2.42;;;22.90;53.80;;;;;;5040063;28;20394;-69
2022/07/14 04:30:54;;;;;;;3.85;2.70;;;23.00;53.50;;;;;;5049506;28;20029;-68
2022/07/14 04:33:21;;;;;;;3.75;2.70;;;22.90;53.60;;;;;;5036618;28;20017;-69
2022/07/14 04:35:47;;;;;;;9.82;3.08;;;22.80;53.60;;;;;;5046347;28;20039;-68
2022/07/14 04:38:12;;;;;;;6.00;2.78;;;22.80;53.60;;;;;;5042696;28;20467;-68
2022/07/14 04:40:38;;;;;;;7.82;3.13;;;22.70;53.90;;;;;;5038838;28;20071;-69
2022/07/14 04:43:04;;;;;;;4.18;2.67;;;22.70;54.30;;;;;;5050192;28;20032;-69
2022/07/14 04:45:29;;;;;;;4.45;2.65;;;22.60;54.60;;;;;;5037924;28;20024;-68
2022/07/14 04:47:55;;;;;;;4.80;2.75;;;22.60;54.40;;;;;;5044707;28;20033;-67
2022/07/14 04:53:05;;;;;;;7.07;3.17;;;22.50;55.00;;;;;;5036635;28;20113;-68
2022/07/14 04:55:31;;;;;;;6.97;2.75;;;22.40;55.00;;;;;;5052782;28;20048;-70
2022/07/14 04:57:57;;;;;;;4.80;3.05;;;22.50;55.30;;;;;;5044563;28;20037;-69
2022/07/14 05:00:22;;;;;;;4.72;2.55;;;22.50;54.60;;;;;;5044614;28;20025;-69
2022/07/14 05:02:48;;;;;;;3.67;2.45;;;22.60;54.60;;;;;;5037398;28;20029;-68
2022/07/14 05:05:14;;;;;;;3.55;2.63;;;22.90;54.10;;;;;;5049086;28;20078;-68
2022/07/14 05:07:39;;;;;;;6.97;3.00;;;23.20;53.10;;;;;;5032750;28;20120;-70
2022/07/14 05:10:06;;;;;;;3.08;2.50;;;23.50;52.00;;;;;;5032357;28;20029;-69
2022/07/14 05:12:32;;;;;;;3.83;2.60;;;23.60;51.90;;;;;;5032190;28;20022;-68
2022/07/14 05:14:57;;;;;;;3.67;2.88;;;23.90;51.50;;;;;;5043298;28;20392;-68
2022/07/14 05:17:23;;;;;;;4.88;2.22;;;23.90;51.30;;;;;;5035492;28;20062;-68
2022/07/14 05:19:51;;;;;;;6.78;2.75;;;23.90;51.50;;;;;;5044683;28;20033;-68
2022/07/14 05:22:17;;;;;;;4.85;2.60;;;24.00;51.00;;;;;;5038712;28;20140;-68
2022/07/14 05:24:43;;;;;;;4.38;2.95;;;;;;;;;;5043412;28;20112;-69
2022/07/14 05:27:09;;;;;;;4.57;2.75;;;24.50;50.50;;;;;;5031337;28;20041;-68
2022/07/14 05:29:35;;;;;;;5.03;2.60;;;26.40;46.20;;;;;;5028086;28;20021;-68
2022/07/14 05:32:00;;;;;;;4.57;2.45;;;27.60;42.60;;;;;;5030342;28;20044;-68
2022/07/14 05:34:27;;;;;;;3.95;2.50;;;27.70;42.20;;;;;;5033106;28;20029;-69
2022/07/14 05:36:52;;;;;;;7.53;2.63;;;27.40;42.80;;;;;;5031733;28;20387;-69
2022/07/14 05:39:18;;;;;;;4.18;2.17;;;27.40;42.70;;;;;;5020265;28;20036;-69
2022/07/14 05:41:43;;;;;;;3.63;2.67;;;27.40;43.20;;;;;;5044474;28;20498;-68
2022/07/14 05:44:09;;;;;;;9.02;2.75;;;27.70;42.30;;;;;;5023566;28;20029;-69
2022/07/14 05:46:34;;;;;;;6.50;2.53;;;27.70;42.20;;;;;;5037771;28;20117;-69
2022/07/14 05:49:00;;;;;;;5.38;2.53;;;27.40;42.30;;;;;;5031506;28;20104;-70
2022/07/14 05:51:26;;;;;;;6.10;3.00;;;27.20;42.60;;;;;;5030098;28;20022;-69
2022/07/14 05:53:52;;;;;;;5.35;3.13;;;27.10;43.40;;;;;;5037411;28;20021;-69
2022/07/14 05:56:18;;;;;;;4.95;2.35;;;27.30;43.00;;;;;;5031923;28;20024;-70
2022/07/14 05:58:45;;;;;;;5.18;2.75;;;27.80;42.20;;;;;;5032295;28;20022;-70
2022/07/14 06:01:12;;;;;;;4.45;2.83;;;28.20;40.90;;;;;;5032334;28;20387;-70
2022/07/14 06:03:38;;;;;;;4.03;2.55;;;28.50;40.90;;;;;;5034532;28;20017;-70
2022/07/14 06:06:06;;;;;;;7.53;2.50;;;29.70;38.50;;;;;;5039746;28;20037;-69
2022/07/14 06:08:33;;;;;;;7.20;2.72;;;29.60;38.60;;;;;;5037389;28;20052;-68
2022/07/14 06:10:59;;;;;;;5.07;2.72;;;28.90;39.70;;;;;;5047194;28;20028;-69
2022/07/14 06:13:29;;;;;;;7.78;2.97;;;28.50;40.00;;;;;;5030705;28;20022;-68
2022/07/14 06:15:55;;;;;;;5.68;2.80;;;28.00;41.10;;;;;;5030927;28;20045;-69
2022/07/14 06:18:21;;;;;;;5.78;3.05;;;27.10;42.70;;;;;;5024506;28;20076;-69
2022/07/14 06:20:47;;;;;;;5.90;2.53;;;26.70;43.70;;;;;;5031755;28;20389;-70
2022/07/14 06:23:14;;;;;;;6.68;2.78;;;26.30;44.80;;;;;;5048103;28;20395;-68
2022/07/14 06:25:40;;;;;;;4.47;2.60;;;26.10;45.50;;;;;;5015214;28;20499;-68
2022/07/14 06:28:07;;;;;;;7.57;3.00;;;25.70;46.10;;;;;;5034556;28;20046;-68
2022/07/14 06:30:33;;;;;;;6.30;3.00;;;25.30;47.20;;;;;;5035821;28;20547;-76
2022/07/14 06:32:59;;;;;;;7.65;3.03;;;25.10;47.70;;;;;;5029288;28;20022;-71
2022/07/14 06:35:25;;;;;;;4.90;2.85;;;25.20;47.80;;;;;;5032243;28;20036;-71
2022/07/14 06:37:55;;;;;;;6.13;2.83;;;25.10;48.00;;;;;;5032427;28;20025;-74
2022/07/14 06:40:21;;;;;;;6.22;2.85;;;25.10;47.80;;;;;;5046906;28;20095;-76
2022/07/14 06:42:47;;;;;;;6.28;2.97;;;25.20;48.30;;;;;;5039784;28;20041;-76
2022/07/14 06:45:15;;;;;;;5.10;3.20;;;25.30;47.90;;;;;;5045765;28;20423;-75
2022/07/14 06:47:42;;;;;;;5.97;2.83;;;26.00;46.80;;;;;;5041314;28;20112;-75
2022/07/14 06:50:09;;;;;;;5.68;2.88;;;26.40;45.30;;;;;;5020077;28;20041;-74
2022/07/14 06:52:35;;;;;;;6.07;2.90;;;26.60;44.90;;;;;;5028463;28;20025;-68
2022/07/14 06:55:02;;;;;;;6.07;3.08;;;;;;;;;;5029953;28;20084;-67
2022/07/14 06:57:27;;;;;;;5.40;3.10;;;27.00;43.90;;;;;;5012102;28;20025;-67
2022/07/14 06:59:54;;;;;;;4.70;2.60;;;27.30;43.20;;;;;;5012361;28;20575;-67
2022/07/14 07:02:20;;;;;;;5.68;2.50;;;27.30;43.30;;;;;;5031447;28;20029;-67
2022/07/14 07:06:43;;;;;;;3.72;2.75;;;27.00;42.90;;;;;;5015789;28;20068;-67
2022/07/14 07:07:33;;;;;;;4.97;3.17;;;26.70;43.60;;;;;;5030013;28;20386;-67
2022/07/14 07:09:58;;;;;;;3.15;2.25;;;26.40;44.70;;;;;;5034172;28;20025;-66
2022/07/14 07:12:24;;;;;;;10.35;2.92;;;26.10;45.60;;;;;;5034251;28;20028;-67
2022/07/14 07:14:49;;;;;;;5.43;2.45;;;25.90;46.30;;;;;;5034621;28;20033;-67
2022/07/14 07:17:15;;;;;;;5.13;2.63;;;25.90;46.10;;;;;;5034844;28;20392;-67
2022/07/14 07:19:40;;;;;;;3.90;2.50;;;25.50;45.80;;;;;;5034717;28;20053;-67
2022/07/14 07:22:06;;;;;;;4.28;2.33;;;25.20;46.90;;;;;;5035090;28;20206;-68
2022/07/14 07:24:32;;;;;;;7.93;2.67;;;25.10;47.70;;;;;;5034726;28;20044;-68
2022/07/14 07:26:57;;;;;;;8.95;2.85;;;25.10;48.10;;;;;;5034740;28;20029;-66
2022/07/14 07:29:23;;;;;;;6.43;2.28;;;25.20;48.30;;;;;;5034741;28;20032;-67
2022/07/14 07:31:48;;;;;;;3.92;2.35;;;25.40;48.00;;;;;;5034982;28;20475;-67
2022/07/14 07:34:14;;;;;;;6.93;2.35;;;25.90;47.10;;;;;;5034451;28;20073;-67
2022/07/14 07:36:39;;;;;;;3.50;2.35;;;26.40;45.80;;;;;;5034705;28;20057;-67
2022/07/14 07:39:05;;;;;;;4.68;2.30;;;27.00;44.10;;;;;;5034400;28;20029;-66
2022/07/14 07:41:31;;;;;;;3.30;2.17;;;28.10;42.60;;;;;;5034585;28;20030;-68
2022/07/14 07:43:58;;;;;;;3.70;2.20;;;29.30;39.50;;;;;;5034593;28;20060;-66
2022/07/14 07:46:24;;;;;;;2.40;2.20;;;29.70;38.20;;;;;;5034509;28;20030;-65
2022/07/14 07:48:50;;;;;;;2.97;2.38;;;30.00;37.60;;;;;;5034221;28;20455;-67
2022/07/14 07:51:16;;;;;;;4.97;2.53;;;29.80;37.60;;;;;;5034487;28;20018;-68
2022/07/14 07:53:43;;;;;;;13.20;2.92;;;29.00;38.80;;;;;;5034784;28;20072;-67
2022/07/14 07:56:09;;;;;;;5.18;2.70;;;29.50;38.50;;;;;;5034361;28;20391;-67
2022/07/14 07:58:35;;;;;;;4.65;2.28;;;29.50;38.70;;;;;;5034236;28;20025;-67
2022/07/14 08:01:01;;;;;;;6.53;2.47;;;29.60;38.40;;;;;;5034684;28;20442;-67
2022/07/14 08:03:27;;;;;;;6.95;2.35;;;29.70;38.50;;;;;;5034115;28;20075;-66
2022/07/14 08:05:52;;;;;;;8.73;2.42;;;29.80;37.40;;;;;;5033995;28;20029;-66
2022/07/14 08:08:18;;;;;;;6.90;2.20;;;29.50;38.30;;;;;;5033798;28;20037;-66
2022/07/14 08:10:44;;;;;;;5.05;2.20;;;28.60;39.30;;;;;;5034084;28;20033;-67
2022/07/14 08:13:10;;;;;;;7.97;2.35;;;28.40;39.90;;;;;;5015949;28;20025;-67
2022/07/14 08:15:36;;;;;;;6.53;2.05;;;27.80;40.90;;;;;;5033716;28;20163;-66
2022/07/14 08:18:03;;;;;;;5.30;2.22;;;27.30;41.50;;;;;;5034045;28;20018;-67
2022/07/14 08:20:29;;;;;;;2.22;1.85;;;27.40;41.70;;;;;;5016419;28;20025;-67
2022/07/14 08:22:55;;;;;;;4.82;1.70;;;27.80;41.40;;;;;;5034005;28;20053;-67
2022/07/14 08:25:20;;;;;;;6.57;2.05;;;28.30;40.30;;;;;;5033763;28;20065;-67
2022/07/14 08:27:46;;;;;;;7.15;2.05;;;28.60;39.20;;;;;;5033534;28;20025;-67
2022/07/14 08:30:12;;;;;;;4.95;1.90;;;28.80;38.30;;;;;;5034009;28;20449;-67
2022/07/14 08:32:39;;;;;;;4.63;2.50;;;28.50;39.00;;;;;;5034128;28;20026;-66
2022/07/14 08:35:07;;;;;;;3.13;1.73;;;28.00;40.30;;;;;;5033843;28;20092;-68
2022/07/14 08:37:33;;;;;;;4.22;2.20;;;28.30;40.30;;;;;;5033362;28;20025;-66
2022/07/14 08:40:00;;;;;;;5.78;2.33;;;28.30;39.70;;;;;;5033820;28;20105;-67
2022/07/14 08:42:27;;;;;;;4.68;1.95;;;28.20;40.10;;;;;;5033701;28;20025;-66
2022/07/14 08:44:53;;;;;;;4.70;2.60;;;27.80;40.60;;;;;;5033370;28;20033;-66
2022/07/14 08:47:20;;;;;;;4.13;1.70;;;27.30;41.10;;;;;;5033191;28;20463;-66
2022/07/14 08:49:46;;;;;;;3.95;1.83;;;26.90;42.30;;;;;;5033732;28;20017;-66
2022/07/14 08:52:12;;;;;;;6.53;1.90;;;;;;;;;;5015518;28;20029;-66
2022/07/14 08:54:39;;;;;;;8.10;2.35;;;;;;;;;;5033217;28;20021;-66
2022/07/14 08:57:05;;;;;;;5.60;2.20;;;;;;;;;;5033109;28;20051;-67
2022/07/14 08:59:31;;;;;;;6.25;2.33;;;;;;;;;;5033303;28;20030;-66
2022/07/14 09:01:58;;;;;;;6.80;2.72;;;;;;;;;;5015601;28;20040;-67
2022/07/14 09:04:24;;;;;;;8.63;3.10;;;;;;;;;;5015549;28;20162;-67
2022/07/14 09:06:54;;;;;;;12.15;2.42;;;;;;;;;;5032998;28;20030;-66
2022/07/14 09:09:27;;;;;;;6.70;2.65;;;;;;;;;;5033009;28;20032;-67
2022/07/14 09:11:57;;;;;;;5.20;2.58;;;;;;;;;;5033464;28;20029;-67
2022/07/14 09:14:24;;;;;;;3.78;2.30;;;;;;;;;;5033308;28;20029;-67
2022/07/14 09:16:49;;;;;;;7.93;2.38;;;27.50;41.40;;;;;;5033078;28;20053;-66
2022/07/14 09:19:16;;;;;;;6.28;2.20;;;26.80;43.20;;;;;;5032897;28;20099;-66
2022/07/14 09:22:07;;;;;;;5.60;2.45;;;26.50;44.90;;;;;;5032966;28;20025;-67
2022/07/14 09:24:33;;;;;;;6.97;2.33;;;27.50;42.50;;;;;;5028415;28;20057;-66
2022/07/14 09:26:59;;;;;;;6.63;2.53;;;28.00;41.20;;;;;;5015142;28;20030;-66
2022/07/14 09:29:27;;;;;;;4.35;2.38;;;28.30;40.60;;;;;;5032662;28;20018;-66
2022/07/14 09:31:53;;;;;;;8.63;2.30;;;28.40;40.10;;;;;;5032875;28;20032;-67
2022/07/14 09:34:26;;;;;;;8.45;2.58;;;28.50;40.30;;;;;;5032624;28;20108;-66
2022/07/14 09:36:52;;;;;;;8.38;2.22;;;29.30;39.30;;;;;;5014885;28;20475;-67
2022/07/14 09:39:18;;;;;;;4.20;2.40;;;29.90;37.50;;;;;;5032529;28;20036;-67
2022/07/14 09:41:53;;;;;;;4.20;2.40;;;30.40;36.70;;;;;;5032805;28;20033;-67
2022/07/14 09:44:19;;;;;;;5.38;2.17;;;30.60;36.10;;;;;;5031673;28;20014;-67
2022/07/14 09:46:46;;;;;;;7.53;2.63;;;31.00;35.60;;;;;;5031110;28;20025;-67
2022/07/14 09:49:13;;;;;;;6.35;2.58;;;31.00;35.30;;;;;;5025038;28;20052;-66
2022/07/14 09:51:54;;;;;;;6.82;1.80;;;30.70;35.80;;;;;;5032828;28;20056;-67
2022/07/14 09:54:45;;;;;;;6.00;1.90;;;30.90;35.80;;;;;;5032838;28;20029;-67
2022/07/14 09:57:13;;;;;;;3.58;2.05;;;31.00;35.10;;;;;;5031976;28;20534;-67
2022/07/14 09:59:47;;;;;;;4.65;1.85;;;30.90;35.00;;;;;;5032500;28;20391;-67
2022/07/14 10:02:21;;;;;;;5.05;1.73;;;30.40;35.30;;;;;;5032427;28;20107;-67
2022/07/14 10:04:47;;;;;;;3.25;1.70;;;30.40;35.70;;;;;;5031482;28;20479;-66
2022/07/14 10:07:23;;;;;;;3.58;2.20;;;30.10;36.30;;;;;;5031878;28;20025;-67
2022/07/14 10:10:02;;;;;;;5.03;2.13;;;30.00;36.80;;;;;;5032959;28;20602;-68
2022/07/14 10:12:29;;;;;;;2.67;1.73;;;29.90;36.80;;;;;;5032926;28;20048;-66
2022/07/14 10:14:59;;;;;;;7.43;2.33;;;29.60;37.20;;;;;;5031765;28;20026;-66
2022/07/14 10:17:29;;;;;;;6.40;1.87;;;29.30;37.70;;;;;;5030569;28;20021;-68
2022/07/14 10:19:56;;;;;;;2.90;1.80;;;29.10;38.50;;;;;;5012998;28;20038;-67
2022/07/14 10:22:22;;;;;;;10.60;1.92;;;29.10;38.50;;;;;;5029296;28;20304;-67
2022/07/14 10:24:49;;;;;;;6.00;1.95;;;29.60;38.10;;;;;;5043948;22;20083;-74
2022/07/14 10:27:18;;;;;;;5.43;2.45;;;29.90;37.40;;;;;;5026342;28;20651;-73
2022/07/14 10:29:48;;;;;;;5.35;2.17;;;29.80;36.80;;;;;;5027830;28;20032;-73
2022/07/14 10:32:23;;;;;;;5.60;2.50;;;29.30;38.20;;;;;;5029254;28;20017;-74
2022/07/14 10:35:43;;;;;;;3.40;1.98;;;29.00;38.30;;;;;;5028219;28;20844;-74
2022/07/14 10:38:34;;;;;;;2.17;1.92;;;28.50;39.20;;;;;;4950232;28;20042;-74
2022/07/14 10:41:18;;;;;;;7.90;2.38;;;28.00;40.00;;;;;;5028529;28;20030;-73
2022/07/14 10:44:09;;;;;;;4.90;1.83;;;28.00;42.00;;;;;;5031469;28;20032;-74
2022/07/14 10:46:40;;;;;;;3.63;2.17;;;28.00;41.40;;;;;;5031476;28;20034;-74
2022/07/14 10:49:08;;;;;;;4.97;1.85;;;28.10;40.80;;;;;;5031264;28;20025;-74
2022/07/14 10:51:47;;;;;;;4.25;1.95;;;28.20;41.00;;;;;;5031588;28;20096;-75
2022/07/14 10:54:29;;;;;;;4.85;2.28;;;28.30;40.40;;;;;;5031083;28;20068;-74
2022/07/14 10:57:13;;;;;;;3.22;1.83;;;28.50;40.10;;;;;;5031062;28;20466;-73
2022/07/14 10:59:40;;;;;;;11.80;2.58;;;28.50;39.30;;;;;;5030953;28;20028;-73
2022/07/14 11:02:14;;;;;;;10.07;2.72;;;27.40;41.10;;;;;;5031366;28;20377;-74
2022/07/14 11:05:04;;;;;;;6.65;2.28;;;26.90;43.30;;;;;;5031247;28;20480;-74
2022/07/14 11:07:46;;;;;;;4.32;2.33;;;27.30;42.40;;;;;;5031052;28;20026;-73
2022/07/14 11:10:21;;;;;;;3.83;1.88;;;27.50;41.80;;;;;;5031298;28;20032;-73
2022/07/14 11:13:05;;;;;;;3.08;2.35;;;27.70;41.10;;;;;;5029976;28;20032;-72
2022/07/14 11:15:50;;;;;;;3.90;2.53;;;27.70;41.20;;;;;;5030983;28;20025;-74
2022/07/14 11:18:24;;;;;;;2.92;1.92;;;27.30;41.10;;;;;;5030763;28;20021;-73
2022/07/14 11:20:55;;;;;;;4.57;2.05;;;27.40;42.10;;;;;;5030862;28;20518;-73
2022/07/14 11:23:24;;;;;;;2.65;1.92;;;27.70;41.60;;;;;;5031106;28;20029;-73
2022/07/14 11:25:51;;;;;;;5.70;2.20;;;27.60;41.00;;;;;;5029266;28;20036;-73
2022/07/14 11:28:40;;;;;;;4.22;2.50;;;27.70;41.50;;;;;;5030988;28;20192;-72
2022/07/14 11:31:14;;;;;;;7.43;2.78;;;28.00;41.60;;;;;;5030899;28;20578;-70
2022/07/14 11:36:33;;;;;;;4.47;2.58;;;28.40;39.70;;;;;;5031316;28;20064;-73
2022/07/14 11:39:21;;;;;;;4.00;2.50;;;28.00;40.10;;;;;;5030700;28;20025;-74
2022/07/14 11:42:11;;;;;;;7.60;2.33;;;28.10;40.40;;;;;;5029647;28;20057;-73
2022/07/14 11:44:40;;;;;;;4.43;2.22;;;28.50;39.40;;;;;;5019462;28;20448;-73
2022/07/14 11:47:18;;;;;;;7.35;2.38;;;28.70;38.90;;;;;;5030400;28;20053;-71
2022/07/14 11:50:10;;;;;;;6.72;2.63;;;28.30;39.80;;;;;;5032703;28;20021;-73
2022/07/14 11:52:38;;;;;;;4.32;2.10;;;28.30;40.20;;;;;;5014258;28;20033;-73
2022/07/14 11:55:06;;;;;;;7.97;2.28;;;28.50;39.80;;;;;;5034295;28;20021;-72
2022/07/14 11:57:32;;;;;;;5.47;2.17;;;28.50;39.40;;;;;;5033962;28;20434;-73
2022/07/14 12:00:06;;;;;;;2.90;2.10;;;28.90;39.60;;;;;;5034438;28;20127;-73
2022/07/14 12:02:32;;;;;;;5.45;2.15;;;;;;;;;;5034575;28;20032;-73
2022/07/14 12:05:00;;;;;;;5.88;2.42;;;;;;;;;;5034111;28;20029;-73
2022/07/14 12:07:44;;;;;;;3.80;2.22;;;30.30;36.80;;;;;;5032710;28;20025;-74
2022/07/14 12:10:11;;;;;;;6.00;2.33;;;30.20;36.90;;;;;;5034548;28;20108;-73
2022/07/14 12:12:42;;;;;;;3.53;1.90;;;30.00;36.80;;;;;;5016593;28;20026;-74
2022/07/14 12:15:08;;;;;;;2.35;2.15;;;29.90;37.70;;;;;;5033994;28;20416;-75
2022/07/14 12:17:49;;;;;;;4.82;2.10;;;29.80;37.30;;;;;;5033922;28;20427;-75
2022/07/14 12:20:15;;;;;;;2.47;2.10;;;29.90;37.50;;;;;;5032773;28;20103;-74
2022/07/14 12:22:56;;;;;;;2.60;2.00;;;30.10;36.90;;;;;;5033974;28;20069;-74
2022/07/14 12:25:37;;;;;;;5.00;1.75;;;30.30;36.50;;;;;;5033412;28;20040;-74
2022/07/14 12:28:09;;;;;;;3.67;2.00;;;30.50;35.60;;;;;;5015360;28;20033;-74
2022/07/14 12:30:44;;;;;;;3.85;2.10;;;30.40;35.80;;;;;;5033502;28;20028;-73
2022/07/14 12:33:12;;;;;;;3.30;2.38;;;30.00;36.90;;;;;;5033542;28;20432;-73
2022/07/14 12:35:40;;;;;;;6.43;2.15;;;30.00;37.60;;;;;;5033518;28;20061;-71
2022/07/14 12:38:06;;;;;;;3.92;2.33;;;29.70;37.30;;;;;;5032960;28;20032;-72
2022/07/14 12:40:32;;;;;;;3.08;2.13;;;29.50;37.40;;;;;;5033688;28;20039;-71
2022/07/14 12:42:58;;;;;;;3.72;2.38;;;29.50;37.90;;;;;;5033543;28;20048;-75
2022/07/14 12:45:24;;;;;;;3.30;2.10;;;29.40;38.20;;;;;;5031809;28;20029;-71
2022/07/14 12:47:52;;;;;;;3.53;2.47;;;29.40;39.00;;;;;;5031174;28;20514;-72
2022/07/14 12:50:23;;;;;;;3.47;1.67;;;29.70;38.50;;;;;;5033492;28;20018;-72
2022/07/14 12:52:50;;;;;;;5.15;2.30;;;30.00;37.80;;;;;;5033657;28;20021;-73
2022/07/14 12:55:44;;;;;;;4.80;1.70;;;30.40;36.90;;;;;;5032965;28;20027;-70
2022/07/14 12:58:11;;;;;;;2.75;2.20;;;30.40;37.00;;;;;;5032388;28;20026;-72
2022/07/14 13:00:39;;;;;;;6.85;2.60;;;29.90;37.20;;;;;;5031686;28;20120;-72
2022/07/14 13:03:16;;;;;;;4.18;2.28;;;28.90;38.60;;;;;;5032898;28;21973;-73
2022/07/14 13:05:55;;;;;;;6.35;2.20;;;28.80;39.70;;;;;;5032864;28;20025;-72
2022/07/14 13:08:34;;;;;;;3.17;2.33;;;28.70;39.70;;;;;;5032308;28;20026;-73
2022/07/14 13:11:02;;;;;;;4.38;2.40;;;29.00;39.20;;;;;;5032309;28;20029;-73
2022/07/14 13:13:30;;;;;;;4.03;2.40;;;29.30;38.50;;;;;;5033056;28;20025;-73
2022/07/14 13:16:27;;;;;;;6.18;2.35;;;29.10;39.10;;;;;;5033488;28;20022;-72
2022/07/14 13:19:02;;;;;;;5.63;2.20;;;29.00;39.40;;;;;;5032127;28;20056;-73
2022/07/14 13:21:47;;;;;;;6.03;2.22;;;29.20;39.30;;;;;;5033107;28;20024;-74
2022/07/14 13:24:23;;;;;;;6.28;2.00;;;29.20;39.00;;;;;;5012933;28;20083;-71
2022/07/14 13:27:11;;;;;;;3.55;2.25;;;29.10;39.00;;;;;;5031040;28;20045;-72
2022/07/14 13:29:43;;;;;;;5.50;1.80;;;29.00;39.30;;;;;;5032141;28;20064;-71
2022/07/14 13:32:10;;;;;;;6.53;2.45;;;28.90;39.20;;;;;;5031656;28;20024;-71
2022/07/14 13:34:37;;;;;;;2.78;2.03;;;28.90;39.40;;;;;;5031415;28;20092;-72
2022/07/14 13:37:04;;;;;;;3.55;1.95;;;29.20;39.60;;;;;;5013911;28;20121;-72
2022/07/14 13:39:29;;;;;;;5.50;2.47;;;29.30;38.80;;;;;;5014018;28;20116;-73
2022/07/14 13:41:56;;;;;;;6.80;2.20;;;29.10;39.20;;;;;;5013917;28;20495;-72
2022/07/14 13:44:23;;;;;;;3.92;2.20;;;28.80;39.30;;;;;;5031666;28;20095;-73